»·PEaware :: SWR75 KLAX-KSAN

SWR75 :: KLAX-KSAN

FLIGHT INFORMATION

Flight Status: Arrived
Operator:
Swiss Airlines
More flights by this operator :: More flights under this callsign
Pilot: Mounir D. (11581)
Aircraft: BOEING 777-200
(B772)
More flights by this aircraft type
Origin: KLAX Los Angeles Intl
United States
Destination: KSAN San Diego Intl-Lindbergh
United States
More flights between these airports :: More routes between these airports
Route: LAXX1 MZB
File this flight plan on PilotEdge
Remarks: LAXP11 TEC ROUTE
Altitude:
(Current/Filed)
11,000ft
Speed:
(Current/Filed)
450kts
Departed: 16-Feb-20 02:33 PM
Arrived: 16-Feb-20 03:11 PM
Distance/Time
Traveled:
94nm/0:37
Distance/Time
To Go:
Arrived

Flight Plot

Page will automatically refresh every two minutes.


Map Options




Map Legend


Flown Route
Filed Route
Departure Airport
Arrival Airport
Navaid (VOR, NDB)
Fix

Horizontal Profiles

Position Reports

Time Latitude Longitude Heading Altitude Ground
Speed
16-Feb-20 14:15 33.940554 -118.408941 264 139ft 0kts
16-Feb-20 14:16 33.940554 -118.408941 264 139ft 0kts
16-Feb-20 14:17 33.940554 -118.408941 264 139ft 0kts
16-Feb-20 14:18 33.940554 -118.408941 264 139ft 0kts
16-Feb-20 14:19 33.940554 -118.408941 264 139ft 0kts
16-Feb-20 14:20 33.940554 -118.408941 264 139ft 0kts
16-Feb-20 14:21 33.940722 -118.408380 223 139ft 2kts
16-Feb-20 14:22 33.941334 -118.408152 173 139ft 0kts
16-Feb-20 14:24 33.941334 -118.408152 173 139ft 0kts
16-Feb-20 14:25 33.940627 -118.408059 173 139ft 9kts
16-Feb-20 14:26 33.939163 -118.404993 84 139ft 13kts
16-Feb-20 14:27 33.939651 -118.399801 82 139ft 25kts
16-Feb-20 14:28 33.940343 -118.392789 83 139ft 18kts
16-Feb-20 14:29 33.940966 -118.386200 82 139ft 24kts
16-Feb-20 14:30 33.940718 -118.380834 106 139ft 0kts
16-Feb-20 14:31 33.939676 -118.381269 271 139ft 13kts
16-Feb-20 14:32 33.939666 -118.381787 263 139ft 0kts
16-Feb-20 14:33 33.936901 -118.407134 262 1123ft 197kts
16-Feb-20 14:34 33.920363 -118.469654 235 5573ft 231kts
16-Feb-20 14:35 33.874031 -118.537754 232 5007ft 271kts
16-Feb-20 14:36 33.825586 -118.608922 231 4996ft 275kts
16-Feb-20 14:37 33.753877 -118.618739 162 5824ft 290kts
16-Feb-20 14:38 33.675591 -118.587275 161 7831ft 301kts
16-Feb-20 14:39 33.595157 -118.554811 161 8004ft 306kts
16-Feb-20 14:40 33.514574 -118.522274 161 8007ft 306kts
16-Feb-20 14:41 33.454079 -118.451684 121 10543ft 339kts
16-Feb-20 14:42 33.396415 -118.344788 121 11002ft 403kts
16-Feb-20 14:43 33.335488 -118.232214 121 11010ft 403kts
16-Feb-20 14:44 33.274460 -118.119828 121 11008ft 404kts
16-Feb-20 14:45 33.216963 -118.014258 121 11003ft 345kts
16-Feb-20 14:46 33.167706 -117.924055 122 11004ft 315kts
16-Feb-20 14:47 33.119686 -117.836327 122 10997ft 317kts
16-Feb-20 14:48 33.072659 -117.747424 112 10992ft 332kts
16-Feb-20 14:49 33.047938 -117.634169 101 10990ft 339kts
16-Feb-20 14:50 33.027088 -117.530152 101 10989ft 312kts
16-Feb-20 14:51 33.007042 -117.429403 101 10987ft 314kts
16-Feb-20 14:52 32.973276 -117.335923 138 10995ft 316kts
16-Feb-20 14:53 32.908099 -117.273149 141 9739ft 291kts
16-Feb-20 14:54 32.847659 -117.216008 141 8078ft 267kts
16-Feb-20 14:55 32.791654 -117.162865 141 7069ft 248kts
16-Feb-20 14:56 32.737906 -117.111688 141 7013ft 247kts
16-Feb-20 14:57 32.684287 -117.060590 141 7011ft 247kts
16-Feb-20 14:58 32.630589 -117.009362 141 7004ft 247kts
16-Feb-20 14:59 32.577015 -116.958149 141 7007ft 247kts
16-Feb-20 15:00 32.523572 -116.906981 141 7028ft 247kts
16-Feb-20 15:01 32.470205 -116.855811 140 7031ft 246kts
16-Feb-20 15:02 32.474104 -116.790345 25 7027ft 233kts
16-Feb-20 15:03 32.525592 -116.820945 311 7018ft 215kts
16-Feb-20 15:04 32.566714 -116.876519 311 5317ft 230kts
16-Feb-20 15:05 32.605338 -116.928292 311 5028ft 194kts
16-Feb-20 15:06 32.640223 -116.975034 311 5004ft 188kts
16-Feb-20 15:07 32.675709 -117.023544 307 4498ft 196kts
16-Feb-20 15:08 32.704726 -117.076574 295 2855ft 190kts
16-Feb-20 15:09 32.718844 -117.132142 287 914ft 151kts
16-Feb-20 15:10 32.729613 -117.173875 286 143ft 133kts
16-Feb-20 15:11 32.734861 -117.199053 262 29ft 19kts
16-Feb-20 15:12 32.735436 -117.201794 285 28ft 13kts
16-Feb-20 15:13 32.734945 -117.205271 219 28ft 10kts
16-Feb-20 15:14 32.733969 -117.205591 184 28ft 7kts
16-Feb-20 15:15 32.732962 -117.207081 205 28ft 5kts
16-Feb-20 15:16 32.732524 -117.207144 189 28ft 0kts
16-Feb-20 15:17 32.732427 -117.207164 190 28ft 0kts
16-Feb-20 15:18 32.732427 -117.207164 190 28ft 0kts
16-Feb-20 15:19 32.732427 -117.207164 190 28ft 0kts
16-Feb-20 15:20 32.732427 -117.207164 190 28ft 0kts

Navigation Log

Ident Type
Flight plan parsing failed, navigation log unavailable